CheckWX is a tool to help pilots better visualize weather data.  It is not intended as a substitute for an official pre-flight weather briefing.

10:10:00 UTC

KMCI TAF
Kansas City International Airport
Kansas City, Missouri, USA
KMCI 260520Z 2606/2706 19008KT P6SM SCT150

Jun-26@
06:00 UTC

Jun-26 @ 06:00 UTC

Jun-27@
06:00 UTC

Jun-27 @ 06:00 UTC

KMCI 260520Z 2606/2706 19008KT P6SM SCT150
Wind
  • 190° at 8 KTS
Cloud Levels
  • Scattered at 15,000' AGL